sensor_id;sensor_type;location;lat;lon;timestamp;temperature;humidity
22192;DHT22;11261;52.456;10.850;2022-09-01T00:00:32;15.90;99.90
22192;DHT22;11261;52.456;10.850;2022-09-01T00:03:00;15.90;99.90
22192;DHT22;11261;52.456;10.850;2022-09-01T00:05:28;15.60;99.90
22192;DHT22;11261;52.456;10.850;2022-09-01T00:07:57;15.80;99.90
22192;DHT22;11261;52.456;10.850;2022-09-01T00:10:26;15.80;99.90
22192;DHT22;11261;52.456;10.850;2022-09-01T00:12:54;15.90;99.90
22192;DHT22;11261;52.456;10.850;2022-09-01T00:15:23;15.60;99.90
22192;DHT22;11261;52.456;10.850;2022-09-01T00:17:53;15.50;99.90
22192;DHT22;11261;52.456;10.850;2022-09-01T00:20:21;15.50;99.90
22192;DHT22;11261;52.456;10.850;2022-09-01T00:22:49;15.60;99.90
22192;DHT22;11261;52.456;10.850;2022-09-01T00:25:18;15.70;99.90
22192;DHT22;11261;52.456;10.850;2022-09-01T00:27:47;15.60;99.90
22192;DHT22;11261;52.456;10.850;2022-09-01T00:30:20;15.60;99.90
22192;DHT22;11261;52.456;10.850;2022-09-01T00:32:48;15.60;99.90
22192;DHT22;11261;52.456;10.850;2022-09-01T00:35:18;15.70;99.90
22192;DHT22;11261;52.456;10.850;2022-09-01T00:37:47;15.60;99.90
22192;DHT22;11261;52.456;10.850;2022-09-01T00:40:16;15.50;99.90
22192;DHT22;11261;52.456;10.850;2022-09-01T00:42:45;15.60;99.90
22192;DHT22;11261;52.456;10.850;2022-09-01T00:45:15;15.50;99.90
22192;DHT22;11261;52.456;10.850;2022-09-01T00:47:47;15.30;99.90
22192;DHT22;11261;52.456;10.850;2022-09-01T00:50:18;15.40;99.90
22192;DHT22;11261;52.456;10.850;2022-09-01T00:52:50;15.40;99.90
22192;DHT22;11261;52.456;10.850;2022-09-01T00:55:23;15.50;99.90
22192;DHT22;11261;52.456;10.850;2022-09-01T00:57:52;15.50;99.90
22192;DHT22;11261;52.456;10.850;2022-09-01T01:00:23;15.50;99.90
22192;DHT22;11261;52.456;10.850;2022-09-01T01:02:52;15.60;99.90
22192;DHT22;11261;52.456;10.850;2022-09-01T01:05:29;15.50;99.90
22192;DHT22;11261;52.456;10.850;2022-09-01T01:07:59;15.50;99.90
22192;DHT22;11261;52.456;10.850;2022-09-01T01:10:30;15.40;99.90
22192;DHT22;11261;52.456;10.850;2022-09-01T01:13:06;15.30;99.90
22192;DHT22;11261;52.456;10.850;2022-09-01T01:15:35;15.40;99.90
22192;DHT22;11261;52.456;10.850;2022-09-01T01:18:04;15.40;99.90
22192;DHT22;11261;52.456;10.850;2022-09-01T01:20:34;15.40;99.90
22192;DHT22;11261;52.456;10.850;2022-09-01T01:23:52;15.40;99.90
22192;DHT22;11261;52.456;10.850;2022-09-01T01:26:24;15.60;99.90
22192;DHT22;11261;52.456;10.850;2022-09-01T01:28:53;15.20;99.90
22192;DHT22;11261;52.456;10.850;2022-09-01T01:31:22;15.30;99.90
22192;DHT22;11261;52.456;10.850;2022-09-01T01:33:52;15.30;99.90
22192;DHT22;11261;52.456;10.850;2022-09-01T01:36:23;15.30;99.90
22192;DHT22;11261;52.456;10.850;2022-09-01T01:38:54;15.20;99.90
22192;DHT22;11261;52.456;10.850;2022-09-01T01:41:30;15.10;99.90
22192;DHT22;11261;52.456;10.850;2022-09-01T01:44:01;15.10;99.90
22192;DHT22;11261;52.456;10.850;2022-09-01T01:46:31;15.20;99.90
22192;DHT22;11261;52.456;10.850;2022-09-01T01:49:00;15.10;99.90
22192;DHT22;11261;52.456;10.850;2022-09-01T01:51:29;15.20;99.90
22192;DHT22;11261;52.456;10.850;2022-09-01T01:53:58;15.10;99.90
22192;DHT22;11261;52.456;10.850;2022-09-01T01:56:29;15.00;99.90
22192;DHT22;11261;52.456;10.850;2022-09-01T01:58:59;15.00;99.90
22192;DHT22;11261;52.456;10.850;2022-09-01T02:01:28;14.90;99.90
22192;DHT22;11261;52.456;10.850;2022-09-01T02:03:58;15.10;99.90
22192;DHT22;11261;52.456;10.850;2022-09-01T02:06:27;15.10;99.90
22192;DHT22;11261;52.456;10.850;2022-09-01T02:08:56;15.20;99.90
22192;DHT22;11261;52.456;10.850;2022-09-01T02:11:25;15.10;99.90
22192;DHT22;11261;52.456;10.850;2022-09-01T02:13:55;15.00;99.90
22192;DHT22;11261;52.456;10.850;2022-09-01T02:16:24;15.00;99.90
22192;DHT22;11261;52.456;10.850;2022-09-01T02:18:54;15.10;99.90
22192;DHT22;11261;52.456;10.850;2022-09-01T02:21:23;15.00;99.90
22192;DHT22;11261;52.456;10.850;2022-09-01T02:23:55;14.80;99.90
22192;DHT22;11261;52.456;10.850;2022-09-01T02:26:27;14.90;99.90
22192;DHT22;11261;52.456;10.850;2022-09-01T02:29:00;15.10;99.90
22192;DHT22;11261;52.456;10.850;2022-09-01T02:31:32;15.00;99.90
22192;DHT22;11261;52.456;10.850;2022-09-01T02:34:01;14.90;99.90
22192;DHT22;11261;52.456;10.850;2022-09-01T02:36:29;14.70;99.90
22192;DHT22;11261;52.456;10.850;2022-09-01T02:39:00;14.80;99.90
22192;DHT22;11261;52.456;10.850;2022-09-01T02:41:29;14.80;99.90
22192;DHT22;11261;52.456;10.850;2022-09-01T02:44:02;14.70;99.90
22192;DHT22;11261;52.456;10.850;2022-09-01T02:46:31;14.80;99.90
22192;DHT22;11261;52.456;10.850;2022-09-01T02:49:00;14.80;99.90
22192;DHT22;11261;52.456;10.850;2022-09-01T02:51:30;14.80;99.90
22192;DHT22;11261;52.456;10.850;2022-09-01T02:53:59;14.90;99.90
22192;DHT22;11261;52.456;10.850;2022-09-01T02:56:27;14.90;99.90
22192;DHT22;11261;52.456;10.850;2022-09-01T02:58:55;14.60;99.90
22192;DHT22;11261;52.456;10.850;2022-09-01T03:01:27;14.70;99.90
22192;DHT22;11261;52.456;10.850;2022-09-01T03:03:58;14.50;99.90
22192;DHT22;11261;52.456;10.850;2022-09-01T03:06:28;14.50;99.90
22192;DHT22;11261;52.456;10.850;2022-09-01T03:09:01;14.70;99.90
22192;DHT22;11261;52.456;10.850;2022-09-01T03:11:32;14.70;99.90
22192;DHT22;11261;52.456;10.850;2022-09-01T03:14:02;14.70;99.90
22192;DHT22;11261;52.456;10.850;2022-09-01T03:16:32;14.60;99.90
22192;DHT22;11261;52.456;10.850;2022-09-01T03:19:00;14.60;99.90
22192;DHT22;11261;52.456;10.850;2022-09-01T03:21:30;14.70;99.90
22192;DHT22;11261;52.456;10.850;2022-09-01T03:23:59;14.70;99.90
22192;DHT22;11261;52.456;10.850;2022-09-01T03:26:30;14.70;99.90
22192;DHT22;11261;52.456;10.850;2022-09-01T03:28:58;14.70;99.90
22192;DHT22;11261;52.456;10.850;2022-09-01T03:31:28;14.70;99.90
22192;DHT22;11261;52.456;10.850;2022-09-01T03:33:59;14.50;99.90
22192;DHT22;11261;52.456;10.850;2022-09-01T03:36:29;14.60;99.90
22192;DHT22;11261;52.456;10.850;2022-09-01T03:38:59;14.70;99.90
22192;DHT22;11261;52.456;10.850;2022-09-01T03:41:29;14.70;99.90
22192;DHT22;11261;52.456;10.850;2022-09-01T03:43:57;14.70;99.90
22192;DHT22;11261;52.456;10.850;2022-09-01T03:46:26;14.50;99.90
22192;DHT22;11261;52.456;10.850;2022-09-01T03:49:04;14.50;99.90
22192;DHT22;11261;52.456;10.850;2022-09-01T03:51:33;14.40;99.90
22192;DHT22;11261;52.456;10.850;2022-09-01T03:54:05;14.20;99.90
22192;DHT22;11261;52.456;10.850;2022-09-01T03:56:33;14.10;99.90
22192;DHT22;11261;52.456;10.850;2022-09-01T03:59:02;13.90;99.90
22192;DHT22;11261;52.456;10.850;2022-09-01T04:01:33;14.10;99.90
22192;DHT22;11261;52.456;10.850;2022-09-01T04:04:08;14.30;99.90
22192;DHT22;11261;52.456;10.850;2022-09-01T04:06:39;14.10;99.90
22192;DHT22;11261;52.456;10.850;2022-09-01T04:09:08;14.20;99.90
22192;DHT22;11261;52.456;10.850;2022-09-01T04:11:37;14.10;99.90
22192;DHT22;11261;52.456;10.850;2022-09-01T04:14:11;15.20;99.90
22192;DHT22;11261;52.456;10.850;2022-09-01T04:16:40;16.50;99.90
22192;DHT22;11261;52.456;10.850;2022-09-01T04:19:32;17.00;99.90
22192;DHT22;11261;52.456;10.850;2022-09-01T04:22:02;17.20;99.90
22192;DHT22;11261;52.456;10.850;2022-09-01T04:24:32;17.40;99.90
22192;DHT22;11261;52.456;10.850;2022-09-01T04:27:01;17.30;99.90
22192;DHT22;11261;52.456;10.850;2022-09-01T04:29:30;17.30;99.90
22192;DHT22;11261;52.456;10.850;2022-09-01T04:32:01;17.20;99.90
22192;DHT22;11261;52.456;10.850;2022-09-01T04:34:34;17.40;99.90
22192;DHT22;11261;52.456;10.850;2022-09-01T04:37:09;17.40;99.90
22192;DHT22;11261;52.456;10.850;2022-09-01T04:39:39;17.40;99.90
22192;DHT22;11261;52.456;10.850;2022-09-01T04:42:20;17.40;99.90
22192;DHT22;11261;52.456;10.850;2022-09-01T04:44:50;16.70;99.90
22192;DHT22;11261;52.456;10.850;2022-09-01T04:47:19;15.70;99.90
22192;DHT22;11261;52.456;10.850;2022-09-01T04:50:04;16.30;99.90
22192;DHT22;11261;52.456;10.850;2022-09-01T04:52:40;17.20;99.90
22192;DHT22;11261;52.456;10.850;2022-09-01T04:55:10;17.40;99.90
22192;DHT22;11261;52.456;10.850;2022-09-01T04:57:44;16.90;99.90
22192;DHT22;11261;52.456;10.850;2022-09-01T05:00:15;15.60;99.90
22192;DHT22;11261;52.456;10.850;2022-09-01T05:02:49;14.80;99.90
22192;DHT22;11261;52.456;10.850;2022-09-01T05:05:22;14.50;99.90
22192;DHT22;11261;52.456;10.850;2022-09-01T05:07:50;14.40;99.90
22192;DHT22;11261;52.456;10.850;2022-09-01T05:10:20;14.40;99.90
22192;DHT22;11261;52.456;10.850;2022-09-01T05:12:48;14.30;99.90
22192;DHT22;11261;52.456;10.850;2022-09-01T05:15:18;14.50;99.90
22192;DHT22;11261;52.456;10.850;2022-09-01T05:17:46;14.70;99.90
22192;DHT22;11261;52.456;10.850;2022-09-01T05:20:15;14.60;99.90
22192;DHT22;11261;52.456;10.850;2022-09-01T05:22:44;14.60;99.90
22192;DHT22;11261;52.456;10.850;2022-09-01T05:25:12;14.40;99.90
22192;DHT22;11261;52.456;10.850;2022-09-01T05:27:42;14.30;99.90
22192;DHT22;11261;52.456;10.850;2022-09-01T05:30:16;14.50;99.90
22192;DHT22;11261;52.456;10.850;2022-09-01T05:32:44;14.50;99.90
22192;DHT22;11261;52.456;10.850;2022-09-01T05:35:15;14.80;99.90
22192;DHT22;11261;52.456;10.850;2022-09-01T05:37:44;15.10;99.90
22192;DHT22;11261;52.456;10.850;2022-09-01T05:40:13;15.80;99.90
22192;DHT22;11261;52.456;10.850;2022-09-01T05:42:42;16.50;99.90
22192;DHT22;11261;52.456;10.850;2022-09-01T05:45:11;17.10;99.90
22192;DHT22;11261;52.456;10.850;2022-09-01T05:47:40;17.50;99.90
22192;DHT22;11261;52.456;10.850;2022-09-01T05:50:08;17.60;99.90
22192;DHT22;11261;52.456;10.850;2022-09-01T05:52:40;17.30;99.90
22192;DHT22;11261;52.456;10.850;2022-09-01T05:55:15;17.00;99.90
22192;DHT22;11261;52.456;10.850;2022-09-01T05:57:43;17.00;99.90
22192;DHT22;11261;52.456;10.850;2022-09-01T06:00:15;17.70;99.90
22192;DHT22;11261;52.456;10.850;2022-09-01T06:02:43;18.50;99.90
22192;DHT22;11261;52.456;10.850;2022-09-01T06:05:12;19.10;99.90
22192;DHT22;11261;52.456;10.850;2022-09-01T06:07:41;17.70;99.90
22192;DHT22;11261;52.456;10.850;2022-09-01T06:10:10;17.60;99.90
22192;DHT22;11261;52.456;10.850;2022-09-01T06:12:40;16.50;99.90
22192;DHT22;11261;52.456;10.850;2022-09-01T06:15:14;17.60;99.90
22192;DHT22;11261;52.456;10.850;2022-09-01T06:17:44;17.60;99.90
22192;DHT22;11261;52.456;10.850;2022-09-01T06:20:13;17.90;99.90
22192;DHT22;11261;52.456;10.850;2022-09-01T06:22:44;17.50;99.90
22192;DHT22;11261;52.456;10.850;2022-09-01T06:25:13;17.80;99.90
22192;DHT22;11261;52.456;10.850;2022-09-01T06:27:45;18.70;99.90
22192;DHT22;11261;52.456;10.850;2022-09-01T06:30:14;17.70;99.90
22192;DHT22;11261;52.456;10.850;2022-09-01T06:32:50;18.40;99.90
22192;DHT22;11261;52.456;10.850;2022-09-01T06:35:19;18.70;99.90
22192;DHT22;11261;52.456;10.850;2022-09-01T06:37:48;19.30;99.90
22192;DHT22;11261;52.456;10.850;2022-09-01T06:40:16;18.60;99.90
22192;DHT22;11261;52.456;10.850;2022-09-01T06:42:48;17.80;99.90
22192;DHT22;11261;52.456;10.850;2022-09-01T06:45:19;18.30;99.90
22192;DHT22;11261;52.456;10.850;2022-09-01T06:47:49;18.60;99.90
22192;DHT22;11261;52.456;10.850;2022-09-01T06:50:26;18.80;99.90
22192;DHT22;11261;52.456;10.850;2022-09-01T06:53:16;18.00;99.90
22192;DHT22;11261;52.456;10.850;2022-09-01T06:56:05;18.20;99.90
22192;DHT22;11261;52.456;10.850;2022-09-01T06:58:35;17.80;99.90
22192;DHT22;11261;52.456;10.850;2022-09-01T07:01:07;17.50;99.90
22192;DHT22;11261;52.456;10.850;2022-09-01T07:03:42;18.10;99.90
22192;DHT22;11261;52.456;10.850;2022-09-01T07:06:11;18.60;99.90
22192;DHT22;11261;52.456;10.850;2022-09-01T07:09:00;17.80;99.90
22192;DHT22;11261;52.456;10.850;2022-09-01T07:11:48;18.80;99.90
22192;DHT22;11261;52.456;10.850;2022-09-01T07:14:37;19.40;99.90
22192;DHT22;11261;52.456;10.850;2022-09-01T07:17:26;20.90;99.90
22192;DHT22;11261;52.456;10.850;2022-09-01T07:19:56;18.70;99.90
22192;DHT22;11261;52.456;10.850;2022-09-01T07:22:44;17.90;99.90
22192;DHT22;11261;52.456;10.850;2022-09-01T07:25:33;20.20;99.90
22192;DHT22;11261;52.456;10.850;2022-09-01T07:28:24;19.60;99.90
22192;DHT22;11261;52.456;10.850;2022-09-01T07:31:05;19.00;99.90
22192;DHT22;11261;52.456;10.850;2022-09-01T07:33:56;20.10;99.90
22192;DHT22;11261;52.456;10.850;2022-09-01T07:36:45;19.70;99.90
22192;DHT22;11261;52.456;10.850;2022-09-01T07:39:33;19.80;99.90
22192;DHT22;11261;52.456;10.850;2022-09-01T07:42:17;20.60;99.90
22192;DHT22;11261;52.456;10.850;2022-09-01T07:45:07;19.70;99.90
22192;DHT22;11261;52.456;10.850;2022-09-01T07:47:54;19.10;99.90
22192;DHT22;11261;52.456;10.850;2022-09-01T07:50:23;18.70;99.90
22192;DHT22;11261;52.456;10.850;2022-09-01T07:53:14;18.90;99.90
22192;DHT22;11261;52.456;10.850;2022-09-01T07:55:44;20.00;99.90
22192;DHT22;11261;52.456;10.850;2022-09-01T07:58:17;20.20;99.90
22192;DHT22;11261;52.456;10.850;2022-09-01T08:00:46;21.50;99.90
22192;DHT22;11261;52.456;10.850;2022-09-01T08:03:19;21.80;99.90
22192;DHT22;11261;52.456;10.850;2022-09-01T08:05:48;21.30;99.90
22192;DHT22;11261;52.456;10.850;2022-09-01T08:08:19;20.80;99.90
22192;DHT22;11261;52.456;10.850;2022-09-01T08:10:54;20.40;99.90
22192;DHT22;11261;52.456;10.850;2022-09-01T08:13:32;20.60;99.90
22192;DHT22;11261;52.456;10.850;2022-09-01T08:16:08;20.90;99.90
22192;DHT22;11261;52.456;10.850;2022-09-01T08:18:46;22.40;99.90
22192;DHT22;11261;52.456;10.850;2022-09-01T08:21:17;22.20;99.90
22192;DHT22;11261;52.456;10.850;2022-09-01T08:23:45;22.60;99.90
22192;DHT22;11261;52.456;10.850;2022-09-01T08:26:16;20.70;99.90
22192;DHT22;11261;52.456;10.850;2022-09-01T08:28:45;21.10;99.90
22192;DHT22;11261;52.456;10.850;2022-09-01T08:31:22;20.90;99.90
22192;DHT22;11261;52.456;10.850;2022-09-01T08:33:53;21.60;99.90
22192;DHT22;11261;52.456;10.850;2022-09-01T08:36:21;21.90;99.90
22192;DHT22;11261;52.456;10.850;2022-09-01T08:38:51;21.90;99.90
22192;DHT22;11261;52.456;10.850;2022-09-01T08:41:30;21.40;99.90
22192;DHT22;11261;52.456;10.850;2022-09-01T08:44:10;21.20;99.90
22192;DHT22;11261;52.456;10.850;2022-09-01T08:46:42;22.30;99.90
22192;DHT22;11261;52.456;10.850;2022-09-01T08:49:17;22.10;99.90
22192;DHT22;11261;52.456;10.850;2022-09-01T08:51:58;21.80;99.90
22192;DHT22;11261;52.456;10.850;2022-09-01T08:54:33;21.10;99.90
22192;DHT22;11261;52.456;10.850;2022-09-01T08:57:06;21.80;99.90
22192;DHT22;11261;52.456;10.850;2022-09-01T08:59:35;21.50;99.90
22192;DHT22;11261;52.456;10.850;2022-09-01T09:02:22;21.20;99.90
22192;DHT22;11261;52.456;10.850;2022-09-01T09:05:00;22.40;99.90
22192;DHT22;11261;52.456;10.850;2022-09-01T09:07:53;22.40;99.90
22192;DHT22;11261;52.456;10.850;2022-09-01T09:10:38;23.60;99.90
22192;DHT22;11261;52.456;10.850;2022-09-01T09:13:19;22.90;99.90
22192;DHT22;11261;52.456;10.850;2022-09-01T09:15:53;23.20;99.90
22192;DHT22;11261;52.456;10.850;2022-09-01T09:18:41;24.20;99.90
22192;DHT22;11261;52.456;10.850;2022-09-01T09:21:32;23.10;99.90
22192;DHT22;11261;52.456;10.850;2022-09-01T09:24:09;22.70;99.90
22192;DHT22;11261;52.456;10.850;2022-09-01T09:26:37;23.30;99.60
22192;DHT22;11261;52.456;10.850;2022-09-01T09:29:08;22.80;99.90
22192;DHT22;11261;52.456;10.850;2022-09-01T09:31:38;22.90;99.90
22192;DHT22;11261;52.456;10.850;2022-09-01T09:34:17;22.80;99.90
22192;DHT22;11261;52.456;10.850;2022-09-01T09:36:47;23.10;99.90
22192;DHT22;11261;52.456;10.850;2022-09-01T09:39:21;23.40;98.80
22192;DHT22;11261;52.456;10.850;2022-09-01T09:42:03;24.40;98.40
22192;DHT22;11261;52.456;10.850;2022-09-01T09:44:40;24.50;98.00
22192;DHT22;11261;52.456;10.850;2022-09-01T09:47:18;23.00;99.90
22192;DHT22;11261;52.456;10.850;2022-09-01T09:50:13;21.90;99.90
22192;DHT22;11261;52.456;10.850;2022-09-01T09:52:45;23.10;99.90
22192;DHT22;11261;52.456;10.850;2022-09-01T09:55:23;23.40;98.40
22192;DHT22;11261;52.456;10.850;2022-09-01T09:57:55;23.90;97.20
22192;DHT22;11261;52.456;10.850;2022-09-01T10:00:27;24.50;97.30
22192;DHT22;11261;52.456;10.850;2022-09-01T10:02:59;24.20;95.40
22192;DHT22;11261;52.456;10.850;2022-09-01T10:05:41;21.90;96.80
22192;DHT22;11261;52.456;10.850;2022-09-01T10:08:13;23.00;96.60
22192;DHT22;11261;52.456;10.850;2022-09-01T10:10:47;22.70;95.40
22192;DHT22;11261;52.456;10.850;2022-09-01T10:13:25;22.30;99.70
22192;DHT22;11261;52.456;10.850;2022-09-01T10:16:00;22.50;97.60
22192;DHT22;11261;52.456;10.850;2022-09-01T10:18:37;24.00;96.10
22192;DHT22;11261;52.456;10.850;2022-09-01T10:21:09;23.10;95.80
22192;DHT22;11261;52.456;10.850;2022-09-01T10:23:40;22.10;97.50
22192;DHT22;11261;52.456;10.850;2022-09-01T10:26:13;23.90;97.30
22192;DHT22;11261;52.456;10.850;2022-09-01T10:28:47;24.30;95.40
22192;DHT22;11261;52.456;10.850;2022-09-01T10:31:19;23.30;95.30
22192;DHT22;11261;52.456;10.850;2022-09-01T10:33:48;24.30;95.50
22192;DHT22;11261;52.456;10.850;2022-09-01T10:36:17;23.90;95.10
22192;DHT22;11261;52.456;10.850;2022-09-01T10:38:51;24.60;95.20
22192;DHT22;11261;52.456;10.850;2022-09-01T10:41:48;24.80;94.50
22192;DHT22;11261;52.456;10.850;2022-09-01T10:44:27;24.50;93.40
22192;DHT22;11261;52.456;10.850;2022-09-01T10:47:03;23.50;96.30
22192;DHT22;11261;52.456;10.850;2022-09-01T10:52:57;24.50;94.60
22192;DHT22;11261;52.456;10.850;2022-09-01T10:55:40;24.40;94.40
22192;DHT22;11261;52.456;10.850;2022-09-01T10:58:32;24.00;93.20
22192;DHT22;11261;52.456;10.850;2022-09-01T11:05:17;23.80;94.00
22192;DHT22;11261;52.456;10.850;2022-09-01T11:07:45;25.20;92.30
22192;DHT22;11261;52.456;10.850;2022-09-01T11:10:43;25.20;90.40
22192;DHT22;11261;52.456;10.850;2022-09-01T11:13:30;25.10;91.50
22192;DHT22;11261;52.456;10.850;2022-09-01T11:16:28;24.60;90.90
22192;DHT22;11261;52.456;10.850;2022-09-01T11:19:35;24.10;91.60
22192;DHT22;11261;52.456;10.850;2022-09-01T11:22:12;23.00;92.60
22192;DHT22;11261;52.456;10.850;2022-09-01T11:25:05;22.10;93.60
22192;DHT22;11261;52.456;10.850;2022-09-01T11:30:48;23.60;92.80
22192;DHT22;11261;52.456;10.850;2022-09-01T11:33:43;23.40;91.70
22192;DHT22;11261;52.456;10.850;2022-09-01T11:36:27;22.90;93.90
22192;DHT22;11261;52.456;10.850;2022-09-01T11:39:05;21.70;93.60
22192;DHT22;11261;52.456;10.850;2022-09-01T11:41:45;21.80;94.40
22192;DHT22;11261;52.456;10.850;2022-09-01T11:44:26;22.80;93.30
22192;DHT22;11261;52.456;10.850;2022-09-01T11:47:02;23.30;92.90
22192;DHT22;11261;52.456;10.850;2022-09-01T11:49:32;23.60;92.90
22192;DHT22;11261;52.456;10.850;2022-09-01T11:52:03;24.80;91.30
22192;DHT22;11261;52.456;10.850;2022-09-01T11:54:38;25.00;89.90
22192;DHT22;11261;52.456;10.850;2022-09-01T11:57:21;24.60;89.10
22192;DHT22;11261;52.456;10.850;2022-09-01T11:59:50;24.70;90.40
22192;DHT22;11261;52.456;10.850;2022-09-01T12:02:21;24.90;88.50
22192;DHT22;11261;52.456;10.850;2022-09-01T12:04:52;22.80;90.70
22192;DHT22;11261;52.456;10.850;2022-09-01T12:07:31;22.30;91.50
22192;DHT22;11261;52.456;10.850;2022-09-01T12:10:02;22.70;92.60
22192;DHT22;11261;52.456;10.850;2022-09-01T12:12:34;23.10;90.80
22192;DHT22;11261;52.456;10.850;2022-09-01T12:15:05;24.10;91.20
22192;DHT22;11261;52.456;10.850;2022-09-01T12:17:36;24.90;89.50
22192;DHT22;11261;52.456;10.850;2022-09-01T12:20:25;24.40;88.50
22192;DHT22;11261;52.456;10.850;2022-09-01T12:22:56;23.70;87.10
22192;DHT22;11261;52.456;10.850;2022-09-01T12:25:26;22.60;87.20
22192;DHT22;11261;52.456;10.850;2022-09-01T12:27:56;22.40;89.10
22192;DHT22;11261;52.456;10.850;2022-09-01T12:30:26;21.70;90.20
22192;DHT22;11261;52.456;10.850;2022-09-01T12:32:56;21.60;91.20
22192;DHT22;11261;52.456;10.850;2022-09-01T12:35:46;21.70;91.10
22192;DHT22;11261;52.456;10.850;2022-09-01T12:38:22;22.70;90.80
22192;DHT22;11261;52.456;10.850;2022-09-01T12:40:52;22.40;90.90
22192;DHT22;11261;52.456;10.850;2022-09-01T12:43:29;22.60;90.50
22192;DHT22;11261;52.456;10.850;2022-09-01T12:45:58;23.40;89.00
22192;DHT22;11261;52.456;10.850;2022-09-01T12:48:33;23.10;88.80
22192;DHT22;11261;52.456;10.850;2022-09-01T12:51:04;22.70;89.70
22192;DHT22;11261;52.456;10.850;2022-09-01T12:53:35;22.40;89.30
22192;DHT22;11261;52.456;10.850;2022-09-01T12:56:22;22.00;90.30
22192;DHT22;11261;52.456;10.850;2022-09-01T12:59:05;21.80;90.40
22192;DHT22;11261;52.456;10.850;2022-09-01T13:01:43;21.70;90.90
22192;DHT22;11261;52.456;10.850;2022-09-01T13:04:23;21.90;90.80
22192;DHT22;11261;52.456;10.850;2022-09-01T13:06:52;22.70;90.30
22192;DHT22;11261;52.456;10.850;2022-09-01T13:09:21;23.50;90.60
22192;DHT22;11261;52.456;10.850;2022-09-01T13:11:49;23.70;90.40
22192;DHT22;11261;52.456;10.850;2022-09-01T13:14:33;24.10;87.10
22192;DHT22;11261;52.456;10.850;2022-09-01T13:17:02;23.50;88.80
22192;DHT22;11261;52.456;10.850;2022-09-01T13:19:31;22.90;88.60
22192;DHT22;11261;52.456;10.850;2022-09-01T13:22:00;22.80;89.50
22192;DHT22;11261;52.456;10.850;2022-09-01T13:24:28;23.10;90.30
22192;DHT22;11261;52.456;10.850;2022-09-01T13:26:58;23.00;89.00
22192;DHT22;11261;52.456;10.850;2022-09-01T13:29:46;23.20;88.20
22192;DHT22;11261;52.456;10.850;2022-09-01T13:32:14;23.00;88.50
22192;DHT22;11261;52.456;10.850;2022-09-01T13:34:46;24.00;90.50
22192;DHT22;11261;52.456;10.850;2022-09-01T13:37:17;24.00;88.10
22192;DHT22;11261;52.456;10.850;2022-09-01T13:39:45;23.20;88.40
22192;DHT22;11261;52.456;10.850;2022-09-01T13:42:14;23.40;89.30
22192;DHT22;11261;52.456;10.850;2022-09-01T13:44:43;23.20;90.10
22192;DHT22;11261;52.456;10.850;2022-09-01T13:47:16;23.70;89.40
22192;DHT22;11261;52.456;10.850;2022-09-01T13:50:02;23.40;89.10
22192;DHT22;11261;52.456;10.850;2022-09-01T13:52:34;23.10;88.60
22192;DHT22;11261;52.456;10.850;2022-09-01T13:55:03;23.50;89.60
22192;DHT22;11261;52.456;10.850;2022-09-01T13:57:32;22.90;90.40
22192;DHT22;11261;52.456;10.850;2022-09-01T14:00:04;23.40;90.40
22192;DHT22;11261;52.456;10.850;2022-09-01T14:02:32;23.20;90.20
22192;DHT22;11261;52.456;10.850;2022-09-01T14:05:02;22.90;90.90
22192;DHT22;11261;52.456;10.850;2022-09-01T14:07:31;22.90;90.70
22192;DHT22;11261;52.456;10.850;2022-09-01T14:09:59;23.10;90.80
22192;DHT22;11261;52.456;10.850;2022-09-01T14:12:27;23.70;90.00
22192;DHT22;11261;52.456;10.850;2022-09-01T14:14:56;23.50;90.00
22192;DHT22;11261;52.456;10.850;2022-09-01T14:17:44;22.50;91.10
22192;DHT22;11261;52.456;10.850;2022-09-01T14:20:17;22.50;91.20
22192;DHT22;11261;52.456;10.850;2022-09-01T14:22:46;22.70;91.40
22192;DHT22;11261;52.456;10.850;2022-09-01T14:25:15;22.80;91.70
22192;DHT22;11261;52.456;10.850;2022-09-01T14:27:43;22.50;91.40
22192;DHT22;11261;52.456;10.850;2022-09-01T14:30:16;22.70;92.10
22192;DHT22;11261;52.456;10.850;2022-09-01T14:32:45;22.30;92.10
22192;DHT22;11261;52.456;10.850;2022-09-01T14:35:16;21.90;92.60
22192;DHT22;11261;52.456;10.850;2022-09-01T14:37:44;22.20;92.00
22192;DHT22;11261;52.456;10.850;2022-09-01T14:40:14;22.70;92.20
22192;DHT22;11261;52.456;10.850;2022-09-01T14:42:45;22.40;91.90
22192;DHT22;11261;52.456;10.850;2022-09-01T14:45:16;22.50;91.70
22192;DHT22;11261;52.456;10.850;2022-09-01T14:47:45;22.90;90.70
22192;DHT22;11261;52.456;10.850;2022-09-01T14:50:15;22.60;91.40
22192;DHT22;11261;52.456;10.850;2022-09-01T14:52:52;22.60;90.90
22192;DHT22;11261;52.456;10.850;2022-09-01T14:55:21;22.70;90.60
22192;DHT22;11261;52.456;10.850;2022-09-01T14:57:50;22.50;90.40
22192;DHT22;11261;52.456;10.850;2022-09-01T15:00:21;22.00;91.30
22192;DHT22;11261;52.456;10.850;2022-09-01T15:02:52;21.90;91.90
22192;DHT22;11261;52.456;10.850;2022-09-01T15:05:23;22.00;91.30
22192;DHT22;11261;52.456;10.850;2022-09-01T15:07:52;22.30;91.60
22192;DHT22;11261;52.456;10.850;2022-09-01T15:10:22;22.30;91.70
22192;DHT22;11261;52.456;10.850;2022-09-01T15:12:53;22.70;90.70
22192;DHT22;11261;52.456;10.850;2022-09-01T15:15:22;22.30;91.70
22192;DHT22;11261;52.456;10.850;2022-09-01T15:17:50;22.70;91.90
22192;DHT22;11261;52.456;10.850;2022-09-01T15:20:19;22.90;91.30
22192;DHT22;11261;52.456;10.850;2022-09-01T15:23:06;22.70;92.10
22192;DHT22;11261;52.456;10.850;2022-09-01T15:25:35;22.70;92.60
22192;DHT22;11261;52.456;10.850;2022-09-01T15:28:04;22.60;92.70
22192;DHT22;11261;52.456;10.850;2022-09-01T15:30:33;23.10;92.10
22192;DHT22;11261;52.456;10.850;2022-09-01T15:33:02;23.20;92.30
22192;DHT22;11261;52.456;10.850;2022-09-01T15:35:31;22.90;92.90
22192;DHT22;11261;52.456;10.850;2022-09-01T15:37:59;22.60;92.50
22192;DHT22;11261;52.456;10.850;2022-09-01T15:40:29;22.60;93.40
22192;DHT22;11261;52.456;10.850;2022-09-01T15:42:57;22.60;93.80
22192;DHT22;11261;52.456;10.850;2022-09-01T15:45:27;23.00;93.10
22192;DHT22;11261;52.456;10.850;2022-09-01T15:47:55;22.90;93.10
22192;DHT22;11261;52.456;10.850;2022-09-01T15:50:25;22.80;93.30
22192;DHT22;11261;52.456;10.850;2022-09-01T15:52:55;22.60;93.40
22192;DHT22;11261;52.456;10.850;2022-09-01T15:55:26;22.10;94.90
22192;DHT22;11261;52.456;10.850;2022-09-01T15:57:57;22.20;94.40
22192;DHT22;11261;52.456;10.850;2022-09-01T16:00:27;22.50;93.60
22192;DHT22;11261;52.456;10.850;2022-09-01T16:02:55;22.20;93.00